createdAt,value
2019-05-17T00:01:07.414Z,86.67
2019-05-17T00:03:36.644Z,88.27
2019-05-17T00:06:06.778Z,88.43
2019-05-17T00:08:38.331Z,87.00
2019-05-17T00:11:06.794Z,97.37
2019-05-17T00:13:38.482Z,103.80
2019-05-17T00:16:07.184Z,90.33
2019-05-17T00:18:43.635Z,88.47
2019-05-17T00:21:18.024Z,87.10
2019-05-17T00:23:47.076Z,83.53
2019-05-17T00:26:16.514Z,83.43
2019-05-17T00:28:46.905Z,84.37
2019-05-17T00:31:17.232Z,81.07
2019-05-17T00:33:47.150Z,85.30
2019-05-17T00:36:17.891Z,92.73
2019-05-17T00:39:23.397Z,83.77
2019-05-17T00:41:52.318Z,79.17
2019-05-17T00:44:21.210Z,74.10
2019-05-17T00:46:50.084Z,84.97
2019-05-17T00:49:18.953Z,85.47
2019-05-17T00:51:47.813Z,84.40
2019-05-17T00:54:17.446Z,88.97
2019-05-17T00:56:46.698Z,84.03
2019-05-17T00:59:17.071Z,74.70
2019-05-17T01:01:46.831Z,81.03
2019-05-17T01:04:17.268Z,76.50
2019-05-17T01:06:46.835Z,75.03
2019-05-17T01:09:17.003Z,73.20
2019-05-17T01:11:47.456Z,69.63
2019-05-17T01:14:17.510Z,67.23
2019-05-17T01:16:47.474Z,66.27
2019-05-17T01:19:16.573Z,71.27
2019-05-17T01:21:47.424Z,69.00
2019-05-17T01:24:17.276Z,72.80
2019-05-17T01:26:46.959Z,73.90
2019-05-17T01:29:17.464Z,70.27
2019-05-17T01:31:47.057Z,63.30
2019-05-17T01:34:16.609Z,68.50
2019-05-17T01:36:46.478Z,65.63
2019-05-17T01:39:21.104Z,69.83
2019-05-17T01:41:46.837Z,68.23
2019-05-17T01:44:16.662Z,69.93
2019-05-17T01:46:46.453Z,64.33
2019-05-17T01:49:16.503Z,65.67
2019-05-17T01:51:46.509Z,67.03
2019-05-17T01:54:17.489Z,66.27
2019-05-17T01:56:46.299Z,64.70
2019-05-17T01:59:17.216Z,63.70
2019-05-17T02:01:47.458Z,67.03
2019-05-17T02:04:17.375Z,63.17
2019-05-17T02:06:46.776Z,68.73
2019-05-17T02:09:32.221Z,73.57
2019-05-17T02:11:46.756Z,68.57
2019-05-17T02:14:16.580Z,65.67
2019-05-17T02:16:46.789Z,61.07
2019-05-17T02:19:17.431Z,55.53
2019-05-17T02:21:47.885Z,62.57
2019-05-17T02:24:17.337Z,63.67
2019-05-17T02:26:46.655Z,70.13
2019-05-17T02:29:15.829Z,68.40
2019-05-17T02:31:45.232Z,55.93
2019-05-17T02:34:14.342Z,55.50
2019-05-17T02:36:43.525Z,62.10
2019-05-17T02:39:13.165Z,57.93
2019-05-17T02:41:43.034Z,60.47
2019-05-17T02:44:13.142Z,61.47
2019-05-17T02:46:43.479Z,56.67
2019-05-17T02:49:13.704Z,56.30
2019-05-17T02:51:43.251Z,58.10
2019-05-17T02:54:13.245Z,59.67
2019-05-17T02:56:43.653Z,60.80
2019-05-17T02:59:13.570Z,62.03
2019-05-17T03:01:44.277Z,53.73
2019-05-17T03:04:13.512Z,52.60
2019-05-17T03:06:43.985Z,61.03
2019-05-17T03:09:13.230Z,59.00
2019-05-17T03:11:42.895Z,59.53
2019-05-17T03:14:13.008Z,63.33
2019-05-17T03:16:42.978Z,58.60
2019-05-17T03:19:13.218Z,63.70
2019-05-17T03:21:43.053Z,58.70
2019-05-17T03:24:13.770Z,58.23
2019-05-17T03:26:43.217Z,58.33
2019-05-17T03:29:13.705Z,61.87
2019-05-17T03:31:51.038Z,61.43
2019-05-17T03:34:16.894Z,56.53
2019-05-17T03:36:46.616Z,54.60
2019-05-17T03:39:15.783Z,54.67
2019-05-17T03:41:44.776Z,56.17
2019-05-17T03:44:13.977Z,58.30
2019-05-17T03:46:42.965Z,56.20
2019-05-17T03:49:13.092Z,59.90
2019-05-17T03:51:42.768Z,56.10
2019-05-17T03:54:13.748Z,59.30
2019-05-17T03:56:42.894Z,57.33
2019-05-17T03:59:12.837Z,59.00
2019-05-17T04:01:43.596Z,64.60
2019-05-17T04:04:13.412Z,62.50
2019-05-17T04:06:43.633Z,63.30
2019-05-17T04:09:14.057Z,62.80
2019-05-17T04:11:43.340Z,59.27
2019-05-17T04:14:14.013Z,63.43
2019-05-17T04:16:43.166Z,54.33
2019-05-17T04:19:13.924Z,56.40
2019-05-17T04:21:43.003Z,53.17
2019-05-17T04:24:12.826Z,49.23
2019-05-17T04:26:43.770Z,50.90
2019-05-17T04:29:13.650Z,52.00
2019-05-17T04:31:43.657Z,55.17
2019-05-17T04:34:13.553Z,53.13
2019-05-17T04:36:43.342Z,50.10
2019-05-17T04:39:13.469Z,48.77
2019-05-17T04:41:49.298Z,50.20
2019-05-17T04:44:13.773Z,47.33
2019-05-17T04:46:43.311Z,46.43
2019-05-17T04:49:13.863Z,50.77
2019-05-17T04:51:44.113Z,51.30
2019-05-17T04:54:13.928Z,50.60
2019-05-17T04:56:43.232Z,53.83
2019-05-17T04:59:13.833Z,53.67
2019-05-17T05:01:43.731Z,59.60
2019-05-17T05:04:15.472Z,62.53
2019-05-17T05:06:44.130Z,64.70
2019-05-17T05:09:13.211Z,66.03
2019-05-17T05:11:53.332Z,56.43
2019-05-17T05:14:12.910Z,61.50
2019-05-17T05:16:42.455Z,62.60
2019-05-17T05:19:12.970Z,64.67
2019-05-17T05:21:42.638Z,61.20
2019-05-17T05:24:12.083Z,64.47
2019-05-17T05:26:42.440Z,59.80
2019-05-17T05:29:12.711Z,59.17
2019-05-17T05:31:42.791Z,66.30
2019-05-17T05:34:12.410Z,57.40
2019-05-17T05:36:41.975Z,55.20
2019-05-17T05:39:11.675Z,59.83
2019-05-17T05:41:42.676Z,53.63
2019-05-17T05:44:12.229Z,49.83
2019-05-17T05:46:42.168Z,48.73
2019-05-17T05:49:12.371Z,52.13
2019-05-17T05:51:42.543Z,50.77
2019-05-17T05:54:12.294Z,44.23
2019-05-17T05:56:42.213Z,50.30
2019-05-17T05:59:12.090Z,47.60
2019-05-17T06:01:42.063Z,49.43
2019-05-17T06:04:11.759Z,52.73
2019-05-17T06:06:41.620Z,44.80
2019-05-17T06:09:12.005Z,40.77
2019-05-17T06:11:41.672Z,49.63
2019-05-17T06:14:12.186Z,45.37
2019-05-17T06:16:42.500Z,45.93
2019-05-17T06:19:11.766Z,47.87
2019-05-17T06:21:42.716Z,46.60
2019-05-17T06:24:11.877Z,48.73
2019-05-17T06:26:42.120Z,42.07
2019-05-17T06:29:11.808Z,40.47
2019-05-17T06:31:43.021Z,41.03
2019-05-17T06:34:11.687Z,42.80
2019-05-17T06:36:42.337Z,43.00
2019-05-17T06:39:11.743Z,42.60
2019-05-17T06:41:45.614Z,40.40
2019-05-17T06:44:14.581Z,50.03
2019-05-17T06:46:43.868Z,39.60
2019-05-17T06:49:12.857Z,33.10
2019-05-17T06:51:42.615Z,29.77
2019-05-17T06:54:12.125Z,28.87
2019-05-17T06:56:41.820Z,27.37
2019-05-17T06:59:11.181Z,27.63
2019-05-17T07:01:40.984Z,30.10
2019-05-17T07:04:10.370Z,24.37
2019-05-17T07:06:40.536Z,27.77
2019-05-17T07:09:10.184Z,26.47
2019-05-17T07:11:39.805Z,22.00
2019-05-17T07:14:09.428Z,27.50
2019-05-17T07:16:39.630Z,21.73
2019-05-17T07:19:10.400Z,25.60
2019-05-17T07:21:40.369Z,21.83
2019-05-17T07:24:10.055Z,21.10
2019-05-17T07:26:39.408Z,19.70
2019-05-17T07:29:10.078Z,19.80
2019-05-17T07:31:40.505Z,19.37
2019-05-17T07:34:09.865Z,20.00
2019-05-17T07:36:39.731Z,22.13
2019-05-17T07:39:10.858Z,20.83
2019-05-17T07:41:40.108Z,20.33
2019-05-17T07:44:09.902Z,21.23
2019-05-17T07:46:40.163Z,17.97
2019-05-17T07:49:10.862Z,18.63
2019-05-17T07:51:40.201Z,17.73
2019-05-17T07:54:10.505Z,17.43
2019-05-17T07:56:40.310Z,21.97
2019-05-17T07:59:09.604Z,19.03
2019-05-17T08:01:41.069Z,23.77
2019-05-17T08:04:09.971Z,20.23
2019-05-17T08:06:40.342Z,25.93
2019-05-17T08:09:13.917Z,22.10
2019-05-17T08:11:40.034Z,19.53
2019-05-17T08:14:10.525Z,21.00
2019-05-17T08:16:39.613Z,19.57
2019-05-17T08:19:09.747Z,18.03
2019-05-17T08:21:39.831Z,20.37
2019-05-17T08:24:10.513Z,20.03
2019-05-17T08:26:40.390Z,18.30
2019-05-17T08:29:09.957Z,17.63
2019-05-17T08:31:40.494Z,19.70
2019-05-17T08:34:10.407Z,19.10
2019-05-17T08:36:40.512Z,17.90
2019-05-17T08:39:10.295Z,23.30
2019-05-17T08:41:40.507Z,19.93
2019-05-17T08:44:10.187Z,19.13
2019-05-17T08:46:39.597Z,18.33
2019-05-17T08:49:09.758Z,17.10
2019-05-17T08:51:39.660Z,15.10
2019-05-17T08:54:10.367Z,14.23
2019-05-17T08:56:40.278Z,17.03
2019-05-17T08:59:09.678Z,21.37
2019-05-17T09:01:41.661Z,19.13
2019-05-17T09:04:09.365Z,18.17
2019-05-17T09:06:39.707Z,19.70
2019-05-17T09:09:09.998Z,20.20
2019-05-17T09:11:39.562Z,17.87
2019-05-17T09:14:10.524Z,20.13
2019-05-17T09:16:40.125Z,19.57
2019-05-17T09:19:10.087Z,20.73
2019-05-17T09:21:39.703Z,18.60
2019-05-17T09:24:10.414Z,14.33
2019-05-17T09:26:40.047Z,15.83
2019-05-17T09:29:10.804Z,18.37
2019-05-17T09:31:41.253Z,15.23
2019-05-17T09:34:10.171Z,15.83
2019-05-17T09:36:40.903Z,14.33
2019-05-17T09:39:09.896Z,16.67
2019-05-17T09:41:39.782Z,14.43
2019-05-17T09:44:15.679Z,14.60
2019-05-17T09:46:39.715Z,14.67
2019-05-17T09:49:10.461Z,13.17
2019-05-17T09:51:39.654Z,14.60
2019-05-17T09:54:10.267Z,16.77
2019-05-17T09:56:39.599Z,13.40
2019-05-17T09:59:09.971Z,17.03
2019-05-17T10:01:39.528Z,13.63
2019-05-17T10:04:12.948Z,17.33
2019-05-17T10:06:40.072Z,16.77
2019-05-17T10:09:09.570Z,14.70
2019-05-17T10:11:39.983Z,18.20
2019-05-17T10:14:11.440Z,17.47
2019-05-17T10:16:39.526Z,20.47
2019-05-17T10:19:09.561Z,21.27
2019-05-17T10:21:39.945Z,23.10
2019-05-17T10:24:09.577Z,20.37
2019-05-17T10:26:38.883Z,21.67
2019-05-17T10:29:09.869Z,20.93
2019-05-17T10:31:39.876Z,21.03
2019-05-17T10:34:09.623Z,18.27
2019-05-17T10:36:40.150Z,18.47
2019-05-17T10:39:09.908Z,19.67
2019-05-17T10:41:40.575Z,17.33
2019-05-17T10:44:09.922Z,17.90
2019-05-17T10:46:40.672Z,17.97
2019-05-17T10:49:10.845Z,18.43
2019-05-17T10:51:40.334Z,18.07
2019-05-17T10:54:09.713Z,17.70
2019-05-17T10:56:38.692Z,17.00
2019-05-17T10:59:09.825Z,17.13
2019-05-17T11:01:38.973Z,15.70
2019-05-17T11:04:10.308Z,15.50
2019-05-17T11:06:39.434Z,19.43
2019-05-17T11:09:10.215Z,18.10
2019-05-17T11:11:39.067Z,13.77
2019-05-17T11:14:08.007Z,18.30
2019-05-17T11:16:36.937Z,18.27
2019-05-17T11:19:08.655Z,20.10
2019-05-17T11:21:36.319Z,19.83
2019-05-17T11:24:05.329Z,15.83
2019-05-17T11:26:34.172Z,20.03
2019-05-17T11:29:03.053Z,15.30
2019-05-17T11:31:32.019Z,16.70
2019-05-17T11:34:00.892Z,24.40
2019-05-17T11:36:29.766Z,17.17
2019-05-17T11:38:58.689Z,17.47
2019-05-17T11:41:28.957Z,17.37
2019-05-17T11:43:57.809Z,17.80
2019-05-17T11:46:35.768Z,20.27
2019-05-17T11:48:57.349Z,20.20
2019-05-17T11:51:27.458Z,17.53
2019-05-17T11:53:56.502Z,18.00
2019-05-17T11:56:25.420Z,18.40
2019-05-17T11:58:54.277Z,20.73
2019-05-17T12:01:23.212Z,17.73
2019-05-17T12:03:52.063Z,18.30
2019-05-17T12:06:20.952Z,20.53
2019-05-17T12:08:49.826Z,17.50
2019-05-17T12:11:18.695Z,23.80
2019-05-17T12:13:47.573Z,17.23
2019-05-17T12:16:16.478Z,16.43
2019-05-17T12:18:45.350Z,17.17
2019-05-17T12:21:14.215Z,17.93
2019-05-17T12:23:43.167Z,17.77
2019-05-17T12:26:12.028Z,16.57
2019-05-17T12:28:40.901Z,16.33
2019-05-17T12:31:09.794Z,19.10
2019-05-17T12:33:38.671Z,18.43
2019-05-17T12:36:07.630Z,17.90
2019-05-17T12:38:36.537Z,17.83
2019-05-17T12:41:05.415Z,18.67
2019-05-17T12:43:34.271Z,16.33
2019-05-17T12:46:03.215Z,20.47
2019-05-17T12:48:32.056Z,19.50
2019-05-17T12:51:00.913Z,18.70
2019-05-17T12:53:29.827Z,17.73
2019-05-17T12:55:58.709Z,21.03
2019-05-17T12:58:27.571Z,21.07
2019-05-17T13:00:56.499Z,18.20
2019-05-17T13:03:25.346Z,19.13
2019-05-17T13:05:54.214Z,17.30
2019-05-17T13:08:23.173Z,18.00
2019-05-17T13:10:52.026Z,21.80
2019-05-17T13:13:20.896Z,19.77
2019-05-17T13:15:49.815Z,17.73
2019-05-17T13:18:18.680Z,18.27
2019-05-17T13:20:47.538Z,17.50
2019-05-17T13:23:16.456Z,21.83
2019-05-17T13:25:45.715Z,20.63
2019-05-17T13:28:14.587Z,21.17
2019-05-17T13:30:44.341Z,21.70
2019-05-17T13:33:13.199Z,24.07
2019-05-17T13:35:42.072Z,24.30
2019-05-17T13:38:11.085Z,24.00
2019-05-17T13:40:40.263Z,26.17
2019-05-17T13:43:09.223Z,25.13
2019-05-17T13:45:38.132Z,24.37
2019-05-17T13:48:06.995Z,21.63
2019-05-17T13:50:35.904Z,26.03
2019-05-17T13:53:04.858Z,23.90
2019-05-17T13:55:33.773Z,24.03
2019-05-17T13:58:02.643Z,25.73
2019-05-17T14:00:31.557Z,21.80
2019-05-17T14:03:00.411Z,25.47
2019-05-17T14:05:29.258Z,44.57
2019-05-17T14:07:58.173Z,26.50
2019-05-17T14:10:31.371Z,25.60
2019-05-17T14:12:57.590Z,26.07
2019-05-17T14:15:26.560Z,24.83
2019-05-17T14:17:55.443Z,26.27
2019-05-17T14:20:25.168Z,26.70
2019-05-17T14:22:54.070Z,29.60
2019-05-17T14:25:23.042Z,24.73
2019-05-17T14:27:51.943Z,24.27
2019-05-17T14:30:21.095Z,26.27
2019-05-17T14:32:49.940Z,28.33
2019-05-17T14:35:18.870Z,24.40
2019-05-17T14:37:47.744Z,26.60
2019-05-17T14:40:16.613Z,30.00
2019-05-17T14:42:45.538Z,34.00
2019-05-17T14:45:14.688Z,27.83
2019-05-17T14:47:43.573Z,28.77
2019-05-17T14:50:15.600Z,28.97
2019-05-17T14:52:44.451Z,27.03
2019-05-17T14:55:13.499Z,27.00
2019-05-17T14:57:43.141Z,25.83
2019-05-17T15:00:12.986Z,27.00
2019-05-17T15:02:41.836Z,26.27
2019-05-17T15:05:11.853Z,28.70
2019-05-17T15:07:40.712Z,26.03
2019-05-17T15:10:09.667Z,24.60
2019-05-17T15:12:38.586Z,25.87
2019-05-17T15:15:07.746Z,28.80
2019-05-17T15:17:36.606Z,30.72
2019-05-17T15:20:06.971Z,30.47
2019-05-17T15:22:35.812Z,27.23
2019-05-17T15:25:05.169Z,27.50
2019-05-17T15:27:34.082Z,24.33
2019-05-17T15:30:03.438Z,28.87
2019-05-17T15:32:32.805Z,26.07
2019-05-17T15:35:01.798Z,30.33
2019-05-17T15:37:30.667Z,26.13
2019-05-17T15:39:59.510Z,27.53
2019-05-17T15:42:42.884Z,32.13
2019-05-17T15:44:58.975Z,29.13
2019-05-17T15:47:27.825Z,27.30
2019-05-17T15:49:56.753Z,27.50
2019-05-17T15:52:25.606Z,26.57
2019-05-17T15:54:54.473Z,30.00
2019-05-17T15:57:23.636Z,30.03
2019-05-17T15:59:52.493Z,28.17
2019-05-17T16:02:21.349Z,29.00
2019-05-17T16:04:50.290Z,30.17
2019-05-17T16:07:19.151Z,28.47
2019-05-17T16:09:48.002Z,27.83
2019-05-17T16:12:16.914Z,27.57
2019-05-17T16:14:45.772Z,28.80
2019-05-17T16:17:14.628Z,33.50
2019-05-17T16:19:43.974Z,32.13
2019-05-17T16:22:12.854Z,29.47
2019-05-17T16:24:41.741Z,34.27
2019-05-17T16:27:10.675Z,30.93
2019-05-17T16:29:39.531Z,28.90
2019-05-17T16:32:08.446Z,28.03
2019-05-17T16:34:37.434Z,29.73
2019-05-17T16:37:06.307Z,30.67
2019-05-17T16:39:35.169Z,34.37
2019-05-17T16:42:04.084Z,31.50
2019-05-17T16:44:32.959Z,29.70
2019-05-17T16:47:01.820Z,31.00
2019-05-17T16:49:30.834Z,32.67
2019-05-17T16:51:59.756Z,34.67
2019-05-17T16:54:28.604Z,33.33
2019-05-17T16:56:57.520Z,31.23
2019-05-17T16:59:27.711Z,35.83
2019-05-17T17:01:56.569Z,31.60
2019-05-17T17:04:25.574Z,35.73
2019-05-17T17:06:54.473Z,35.50
2019-05-17T17:09:23.355Z,35.07
2019-05-17T17:11:55.320Z,34.87
2019-05-17T17:14:24.204Z,37.03
2019-05-17T17:16:53.064Z,38.40
2019-05-17T17:19:21.969Z,39.10
2019-05-17T17:21:50.838Z,37.17
2019-05-17T17:24:20.069Z,40.07
2019-05-17T17:26:49.026Z,42.10
2019-05-17T17:29:18.364Z,37.37
2019-05-17T17:31:47.220Z,40.90
2019-05-17T17:34:16.145Z,42.73
2019-05-17T17:36:45.024Z,43.77
2019-05-17T17:39:13.886Z,42.47
2019-05-17T17:41:42.800Z,46.00
2019-05-17T17:44:11.673Z,45.00
2019-05-17T17:46:40.565Z,45.17
2019-05-17T17:49:09.445Z,54.93
2019-05-17T17:51:38.307Z,46.77
2019-05-17T17:54:07.179Z,51.57
2019-05-17T17:56:36.110Z,70.00
2019-05-17T17:59:04.963Z,50.60
2019-05-17T18:01:33.838Z,47.60
2019-05-17T18:04:02.756Z,50.43
2019-05-17T18:06:31.619Z,46.37
2019-05-17T18:09:00.473Z,50.53
2019-05-17T18:11:29.369Z,45.47
2019-05-17T18:14:12.164Z,48.73
2019-05-17T18:16:28.743Z,49.67
2019-05-17T18:18:57.669Z,44.30
2019-05-17T18:21:26.539Z,41.63
2019-05-17T18:23:55.393Z,46.23
2019-05-17T18:26:24.308Z,44.70
2019-05-17T18:28:53.164Z,81.63
2019-05-17T18:31:22.042Z,96.33
2019-05-17T18:33:50.929Z,123.37
2019-05-17T18:36:19.794Z,125.50
2019-05-17T18:38:51.602Z,109.50
2019-05-17T18:41:20.531Z,92.13
2019-05-17T18:43:49.406Z,86.27
2019-05-17T18:46:18.276Z,104.37
2019-05-17T18:48:47.178Z,101.57
2019-05-17T18:51:16.044Z,104.60
2019-05-17T18:53:44.914Z,113.50
2019-05-17T18:56:13.819Z,107.53
2019-05-17T18:58:42.691Z,104.63
2019-05-17T19:01:11.878Z,101.77
2019-05-17T19:03:40.796Z,97.90
2019-05-17T19:06:09.648Z,125.33
2019-05-17T19:08:38.523Z,132.87
2019-05-17T19:11:08.429Z,141.90
2019-05-17T19:13:37.310Z,139.00
2019-05-17T19:16:06.160Z,131.47
2019-05-17T19:18:35.092Z,129.03
2019-05-17T19:21:05.245Z,140.57
2019-05-17T19:23:34.106Z,136.53
2019-05-17T19:26:03.056Z,123.70
2019-05-17T19:28:31.928Z,116.27
2019-05-17T19:31:00.846Z,116.97
2019-05-17T19:33:29.708Z,119.03
2019-05-17T19:35:58.590Z,117.47
2019-05-17T19:38:27.404Z,128.07
2019-05-17T19:40:56.285Z,113.77
2019-05-17T19:43:25.200Z,114.07
2019-05-17T19:45:54.059Z,115.67
2019-05-17T19:48:22.985Z,115.23
2019-05-17T19:50:51.867Z,128.03
2019-05-17T19:53:20.735Z,128.17
2019-05-17T19:55:49.636Z,123.93
2019-05-17T19:58:18.509Z,117.07
2019-05-17T20:00:47.489Z,114.13
2019-05-17T20:03:16.391Z,112.63
2019-05-17T20:05:45.259Z,108.60
2019-05-17T20:08:14.122Z,105.60
2019-05-17T20:10:43.277Z,120.53
2019-05-17T20:13:12.189Z,127.10
2019-05-17T20:15:41.051Z,112.93
2019-05-17T20:18:10.362Z,107.77
2019-05-17T20:20:39.260Z,113.60
2019-05-17T20:23:08.208Z,113.77
2019-05-17T20:25:37.131Z,119.43
2019-05-17T20:28:05.995Z,160.93
2019-05-17T20:30:34.866Z,144.60
2019-05-17T20:33:03.969Z,141.23
2019-05-17T20:35:32.826Z,136.67
2019-05-17T20:38:01.694Z,142.73
2019-05-17T20:40:30.624Z,149.33
2019-05-17T20:42:59.447Z,148.17
2019-05-17T20:45:33.059Z,139.17
2019-05-17T20:47:58.910Z,156.10
2019-05-17T20:50:27.773Z,153.37
2019-05-17T20:52:56.667Z,155.50
2019-05-17T20:55:27.483Z,147.53
2019-05-17T20:57:56.335Z,140.30
2019-05-17T21:00:25.199Z,142.80
2019-05-17T21:02:54.112Z,151.33
2019-05-17T21:05:22.965Z,149.60
2019-05-17T21:07:51.826Z,148.37
2019-05-17T21:10:20.734Z,144.37
2019-05-17T21:12:49.610Z,147.27
2019-05-17T21:15:18.565Z,129.30
2019-05-17T21:17:47.493Z,133.90
2019-05-17T21:20:16.878Z,143.27
2019-05-17T21:22:45.849Z,143.43
2019-05-17T21:25:14.867Z,142.60
2019-05-17T21:27:43.727Z,131.20
2019-05-17T21:30:12.690Z,127.53
2019-05-17T21:32:41.571Z,132.33
2019-05-17T21:35:10.469Z,120.30
2019-05-17T21:37:39.335Z,107.37
2019-05-17T21:40:09.662Z,110.50
2019-05-17T21:42:38.538Z,139.80
2019-05-17T21:45:07.991Z,119.87
2019-05-17T21:47:36.899Z,126.53
2019-05-17T21:50:06.062Z,115.10
2019-05-17T21:52:34.957Z,99.17
2019-05-17T21:55:03.972Z,100.20
2019-05-17T21:57:32.838Z,97.47
2019-05-17T22:00:01.714Z,100.30
2019-05-17T22:02:30.640Z,107.60
2019-05-17T22:04:59.510Z,109.03
2019-05-17T22:07:28.391Z,97.07
2019-05-17T22:09:57.282Z,105.23
2019-05-17T22:12:26.134Z,96.57
2019-05-17T22:14:55.004Z,97.00
2019-05-17T22:17:23.915Z,95.93
2019-05-17T22:19:52.758Z,93.20
2019-05-17T22:22:21.640Z,92.73
2019-05-17T22:24:50.585Z,96.87
2019-05-17T22:27:19.458Z,92.00
2019-05-17T22:29:48.311Z,130.20
2019-05-17T22:32:17.235Z,109.90
2019-05-17T22:34:46.106Z,93.83
2019-05-17T22:37:17.569Z,91.27
2019-05-17T22:39:45.539Z,93.70
2019-05-17T22:42:14.392Z,89.00
2019-05-17T22:44:43.268Z,93.23
2019-05-17T22:47:12.222Z,104.70
2019-05-17T22:49:41.084Z,96.03
2019-05-17T22:52:10.000Z,86.67
2019-05-17T22:54:38.956Z,93.13
2019-05-17T22:57:07.836Z,85.47
2019-05-17T22:59:36.690Z,83.57
2019-05-17T23:02:05.587Z,91.47
2019-05-17T23:04:34.544Z,84.20
2019-05-17T23:07:03.403Z,84.33
2019-05-17T23:09:32.374Z,82.97
2019-05-17T23:12:01.200Z,77.17
2019-05-17T23:14:30.083Z,93.63
2019-05-17T23:16:58.980Z,99.57
2019-05-17T23:19:27.832Z,99.87
2019-05-17T23:21:56.690Z,91.80
2019-05-17T23:24:25.626Z,83.83
2019-05-17T23:26:54.475Z,86.67
2019-05-17T23:29:23.327Z,90.40
2019-05-17T23:31:52.266Z,94.93
2019-05-17T23:34:21.134Z,95.87
2019-05-17T23:36:49.981Z,112.20
2019-05-17T23:39:18.886Z,93.77
2019-05-17T23:41:47.761Z,117.03
2019-05-17T23:44:16.631Z,129.03
2019-05-17T23:46:45.517Z,129.80
2019-05-17T23:49:14.441Z,113.23
2019-05-17T23:51:43.291Z,93.53
2019-05-17T23:54:12.232Z,87.47
2019-05-17T23:56:41.097Z,88.57
2019-05-17T23:59:10.069Z,91.60
